sensor_id;sensor_type;location;lat;lon;timestamp;P1;durP1;ratioP1;P2;durP2;ratioP2
16600;SDS011;34891;48.164;11.572;2024-01-30T00:03:13;14.47;;;4.43;;
16600;SDS011;34891;48.164;11.572;2024-01-30T00:08:27;12.20;;;4.25;;
16600;SDS011;34891;48.164;11.572;2024-01-30T00:13:32;11.88;;;5.13;;
16600;SDS011;34891;48.164;11.572;2024-01-30T00:18:46;10.90;;;4.17;;
16600;SDS011;34891;48.164;11.572;2024-01-30T00:23:51;8.07;;;3.60;;
16600;SDS011;34891;48.164;11.572;2024-01-30T00:29:06;9.20;;;3.97;;
16600;SDS011;34891;48.164;11.572;2024-01-30T00:34:18;10.00;;;4.30;;
16600;SDS011;34891;48.164;11.572;2024-01-30T00:39:24;12.40;;;4.03;;
16600;SDS011;34891;48.164;11.572;2024-01-30T00:44:27;9.00;;;4.07;;
16600;SDS011;34891;48.164;11.572;2024-01-30T00:49:34;10.43;;;4.60;;
16600;SDS011;34891;48.164;11.572;2024-01-30T00:54:44;12.97;;;4.80;;
16600;SDS011;34891;48.164;11.572;2024-01-30T00:59:50;11.40;;;4.10;;
16600;SDS011;34891;48.164;11.572;2024-01-30T01:04:59;10.80;;;4.03;;
16600;SDS011;34891;48.164;11.572;2024-01-30T01:10:21;10.97;;;3.83;;
16600;SDS011;34891;48.164;11.572;2024-01-30T01:15:42;9.13;;;4.13;;
16600;SDS011;34891;48.164;11.572;2024-01-30T01:20:46;11.60;;;4.43;;
16600;SDS011;34891;48.164;11.572;2024-01-30T01:25:55;8.57;;;4.10;;
16600;SDS011;34891;48.164;11.572;2024-01-30T01:31:10;18.35;;;4.78;;
16600;SDS011;34891;48.164;11.572;2024-01-30T01:41:39;9.93;;;4.03;;
16600;SDS011;34891;48.164;11.572;2024-01-30T01:46:51;7.85;;;3.67;;
16600;SDS011;34891;48.164;11.572;2024-01-30T01:52:01;11.70;;;4.40;;
16600;SDS011;34891;48.164;11.572;2024-01-30T01:57:09;12.10;;;4.47;;
16600;SDS011;34891;48.164;11.572;2024-01-30T02:02:12;8.83;;;3.50;;
16600;SDS011;34891;48.164;11.572;2024-01-30T02:07:38;10.57;;;3.50;;
16600;SDS011;34891;48.164;11.572;2024-01-30T02:12:57;9.27;;;4.00;;
16600;SDS011;34891;48.164;11.572;2024-01-30T02:18:03;16.13;;;3.97;;
16600;SDS011;34891;48.164;11.572;2024-01-30T02:28:18;10.03;;;3.30;;
16600;SDS011;34891;48.164;11.572;2024-01-30T02:33:26;6.43;;;2.97;;
16600;SDS011;34891;48.164;11.572;2024-01-30T02:38:30;9.50;;;3.47;;
16600;SDS011;34891;48.164;11.572;2024-01-30T02:43:37;7.63;;;3.20;;
16600;SDS011;34891;48.164;11.572;2024-01-30T02:48:42;8.57;;;3.43;;
16600;SDS011;34891;48.164;11.572;2024-01-30T02:53:45;11.53;;;3.80;;
16600;SDS011;34891;48.164;11.572;2024-01-30T02:58:55;9.03;;;3.73;;
16600;SDS011;34891;48.164;11.572;2024-01-30T03:04:01;11.13;;;3.87;;
16600;SDS011;34891;48.164;11.572;2024-01-30T03:09:04;9.57;;;3.13;;
16600;SDS011;34891;48.164;11.572;2024-01-30T03:14:12;9.27;;;3.47;;
16600;SDS011;34891;48.164;11.572;2024-01-30T03:19:17;6.47;;;2.87;;
16600;SDS011;34891;48.164;11.572;2024-01-30T03:24:23;10.47;;;3.30;;
16600;SDS011;34891;48.164;11.572;2024-01-30T03:29:32;5.20;;;3.00;;
16600;SDS011;34891;48.164;11.572;2024-01-30T03:34:44;5.03;;;2.70;;
16600;SDS011;34891;48.164;11.572;2024-01-30T03:40:04;4.87;;;2.20;;
16600;SDS011;34891;48.164;11.572;2024-01-30T03:45:21;8.03;;;3.03;;
16600;SDS011;34891;48.164;11.572;2024-01-30T03:50:26;6.60;;;3.10;;
16600;SDS011;34891;48.164;11.572;2024-01-30T03:55:39;9.40;;;2.80;;
16600;SDS011;34891;48.164;11.572;2024-01-30T04:00:44;9.07;;;2.97;;
16600;SDS011;34891;48.164;11.572;2024-01-30T04:05:47;5.73;;;3.00;;
16600;SDS011;34891;48.164;11.572;2024-01-30T04:10:54;9.07;;;2.90;;
16600;SDS011;34891;48.164;11.572;2024-01-30T04:16:18;9.27;;;3.20;;
16600;SDS011;34891;48.164;11.572;2024-01-30T04:21:28;10.77;;;2.87;;
16600;SDS011;34891;48.164;11.572;2024-01-30T04:26:47;7.78;;;2.38;;
16600;SDS011;34891;48.164;11.572;2024-01-30T04:37:15;5.87;;;2.27;;
16600;SDS011;34891;48.164;11.572;2024-01-30T04:42:29;5.90;;;2.43;;
16600;SDS011;34891;48.164;11.572;2024-01-30T04:47:37;5.77;;;2.60;;
16600;SDS011;34891;48.164;11.572;2024-01-30T04:52:49;7.00;;;2.87;;
16600;SDS011;34891;48.164;11.572;2024-01-30T04:58:01;7.70;;;2.57;;
16600;SDS011;34891;48.164;11.572;2024-01-30T05:03:04;9.43;;;2.73;;
16600;SDS011;34891;48.164;11.572;2024-01-30T05:08:17;7.33;;;2.80;;
16600;SDS011;34891;48.164;11.572;2024-01-30T05:13:20;9.93;;;2.83;;
16600;SDS011;34891;48.164;11.572;2024-01-30T05:18:38;7.63;;;2.50;;
16600;SDS011;34891;48.164;11.572;2024-01-30T05:23:47;5.90;;;2.83;;
16600;SDS011;34891;48.164;11.572;2024-01-30T05:28:52;9.40;;;3.00;;
16600;SDS011;34891;48.164;11.572;2024-01-30T05:33:59;8.83;;;2.83;;
16600;SDS011;34891;48.164;11.572;2024-01-30T05:39:07;10.23;;;3.07;;
16600;SDS011;34891;48.164;11.572;2024-01-30T05:44:12;6.53;;;2.90;;
16600;SDS011;34891;48.164;11.572;2024-01-30T05:49:17;9.20;;;3.27;;
16600;SDS011;34891;48.164;11.572;2024-01-30T05:54:28;6.25;;;2.67;;
16600;SDS011;34891;48.164;11.572;2024-01-30T05:59:35;7.77;;;2.83;;
16600;SDS011;34891;48.164;11.572;2024-01-30T06:04:43;5.10;;;2.50;;
16600;SDS011;34891;48.164;11.572;2024-01-30T06:09:56;7.97;;;2.83;;
16600;SDS011;34891;48.164;11.572;2024-01-30T06:15:04;5.57;;;2.47;;
16600;SDS011;34891;48.164;11.572;2024-01-30T06:20:11;5.37;;;2.53;;
16600;SDS011;34891;48.164;11.572;2024-01-30T06:25:18;11.83;;;2.90;;
16600;SDS011;34891;48.164;11.572;2024-01-30T06:30:30;5.23;;;1.90;;
16600;SDS011;34891;48.164;11.572;2024-01-30T06:35:47;6.90;;;2.30;;
16600;SDS011;34891;48.164;11.572;2024-01-30T06:40:59;7.93;;;2.40;;
16600;SDS011;34891;48.164;11.572;2024-01-30T06:46:03;3.00;;;1.73;;
16600;SDS011;34891;48.164;11.572;2024-01-30T06:51:08;9.77;;;2.50;;
16600;SDS011;34891;48.164;11.572;2024-01-30T06:56:20;6.80;;;2.13;;
16600;SDS011;34891;48.164;11.572;2024-01-30T07:06:41;5.47;;;1.90;;
16600;SDS011;34891;48.164;11.572;2024-01-30T07:11:57;4.65;;;2.35;;
16600;SDS011;34891;48.164;11.572;2024-01-30T07:17:17;9.50;;;2.05;;
16600;SDS011;34891;48.164;11.572;2024-01-30T07:22:25;4.15;;;1.95;;
16600;SDS011;34891;48.164;11.572;2024-01-30T07:27:38;6.38;;;2.50;;
16600;SDS011;34891;48.164;11.572;2024-01-30T07:32:57;8.60;;;2.55;;
16600;SDS011;34891;48.164;11.572;2024-01-30T07:38:06;5.13;;;2.22;;
16600;SDS011;34891;48.164;11.572;2024-01-30T07:43:13;6.70;;;2.45;;
16600;SDS011;34891;48.164;11.572;2024-01-30T07:48:35;6.00;;;2.63;;
16600;SDS011;34891;48.164;11.572;2024-01-30T07:53:44;14.95;;;3.47;;
16600;SDS011;34891;48.164;11.572;2024-01-30T07:58:50;7.68;;;3.03;;
16600;SDS011;34891;48.164;11.572;2024-01-30T08:04:09;7.50;;;2.63;;
16600;SDS011;34891;48.164;11.572;2024-01-30T08:09:15;5.93;;;2.63;;
16600;SDS011;34891;48.164;11.572;2024-01-30T08:14:26;5.35;;;2.50;;
16600;SDS011;34891;48.164;11.572;2024-01-30T08:19:35;10.88;;;2.65;;
16600;SDS011;34891;48.164;11.572;2024-01-30T08:24:44;8.35;;;2.60;;
16600;SDS011;34891;48.164;11.572;2024-01-30T08:35:03;6.88;;;2.90;;
16600;SDS011;34891;48.164;11.572;2024-01-30T08:40:15;7.03;;;3.20;;
16600;SDS011;34891;48.164;11.572;2024-01-30T08:45:24;11.85;;;3.88;;
16600;SDS011;34891;48.164;11.572;2024-01-30T08:50:32;8.82;;;3.50;;
16600;SDS011;34891;48.164;11.572;2024-01-30T08:55:48;9.75;;;3.90;;
16600;SDS011;34891;48.164;11.572;2024-01-30T09:01:04;13.10;;;3.80;;
16600;SDS011;34891;48.164;11.572;2024-01-30T09:06:24;7.68;;;3.47;;
16600;SDS011;34891;48.164;11.572;2024-01-30T09:11:36;8.00;;;3.90;;
16600;SDS011;34891;48.164;11.572;2024-01-30T09:16:40;10.27;;;3.70;;
16600;SDS011;34891;48.164;11.572;2024-01-30T09:21:55;11.23;;;3.92;;
16600;SDS011;34891;48.164;11.572;2024-01-30T09:27:02;12.43;;;4.20;;
16600;SDS011;34891;48.164;11.572;2024-01-30T09:32:12;10.07;;;4.13;;
16600;SDS011;34891;48.164;11.572;2024-01-30T09:37:23;8.80;;;3.78;;
16600;SDS011;34891;48.164;11.572;2024-01-30T09:42:32;10.93;;;4.32;;
16600;SDS011;34891;48.164;11.572;2024-01-30T09:47:44;12.27;;;4.60;;
16600;SDS011;34891;48.164;11.572;2024-01-30T09:52:55;12.73;;;4.22;;
16600;SDS011;34891;48.164;11.572;2024-01-30T09:58:08;11.40;;;4.63;;
16600;SDS011;34891;48.164;11.572;2024-01-30T10:03:15;12.55;;;5.10;;
16600;SDS011;34891;48.164;11.572;2024-01-30T10:08:23;8.68;;;4.10;;
16600;SDS011;34891;48.164;11.572;2024-01-30T10:13:27;12.40;;;4.55;;
16600;SDS011;34891;48.164;11.572;2024-01-30T10:18:32;11.60;;;4.57;;
16600;SDS011;34891;48.164;11.572;2024-01-30T10:23:43;9.35;;;4.60;;
16600;SDS011;34891;48.164;11.572;2024-01-30T10:28:47;9.02;;;4.20;;
16600;SDS011;34891;48.164;11.572;2024-01-30T10:33:54;9.25;;;3.50;;
16600;SDS011;34891;48.164;11.572;2024-01-30T10:39:19;6.90;;;3.45;;
16600;SDS011;34891;48.164;11.572;2024-01-30T10:44:28;10.00;;;3.20;;
16600;SDS011;34891;48.164;11.572;2024-01-30T10:49:39;10.32;;;4.28;;
16600;SDS011;34891;48.164;11.572;2024-01-30T11:00:20;6.28;;;3.20;;
16600;SDS011;34891;48.164;11.572;2024-01-30T11:05:27;6.65;;;2.80;;
16600;SDS011;34891;48.164;11.572;2024-01-30T11:10:44;7.63;;;3.35;;
16600;SDS011;34891;48.164;11.572;2024-01-30T11:15:54;7.20;;;2.83;;
16600;SDS011;34891;48.164;11.572;2024-01-30T11:20:59;5.53;;;2.63;;
16600;SDS011;34891;48.164;11.572;2024-01-30T11:26:08;4.25;;;2.55;;
16600;SDS011;34891;48.164;11.572;2024-01-30T11:31:30;8.73;;;3.00;;
16600;SDS011;34891;48.164;11.572;2024-01-30T11:36:41;4.88;;;2.83;;
16600;SDS011;34891;48.164;11.572;2024-01-30T11:41:50;6.05;;;2.20;;
16600;SDS011;34891;48.164;11.572;2024-01-30T11:47:01;3.85;;;1.92;;
16600;SDS011;34891;48.164;11.572;2024-01-30T11:52:07;5.18;;;2.22;;
16600;SDS011;34891;48.164;11.572;2024-01-30T11:57:12;3.50;;;1.98;;
16600;SDS011;34891;48.164;11.572;2024-01-30T12:02:21;5.63;;;2.40;;
16600;SDS011;34891;48.164;11.572;2024-01-30T12:07:27;4.20;;;2.40;;
16600;SDS011;34891;48.164;11.572;2024-01-30T12:12:43;4.63;;;2.10;;
16600;SDS011;34891;48.164;11.572;2024-01-30T12:17:49;4.10;;;2.00;;
16600;SDS011;34891;48.164;11.572;2024-01-30T12:22:59;5.45;;;2.60;;
16600;SDS011;34891;48.164;11.572;2024-01-30T12:28:08;6.50;;;2.58;;
16600;SDS011;34891;48.164;11.572;2024-01-30T12:33:24;5.75;;;2.40;;
16600;SDS011;34891;48.164;11.572;2024-01-30T12:38:41;4.10;;;2.25;;
16600;SDS011;34891;48.164;11.572;2024-01-30T12:43:51;4.88;;;2.20;;
16600;SDS011;34891;48.164;11.572;2024-01-30T12:48:59;8.85;;;2.30;;
16600;SDS011;34891;48.164;11.572;2024-01-30T12:54:06;6.15;;;2.10;;
16600;SDS011;34891;48.164;11.572;2024-01-30T12:59:16;8.07;;;2.08;;
16600;SDS011;34891;48.164;11.572;2024-01-30T13:04:25;4.65;;;2.00;;
16600;SDS011;34891;48.164;11.572;2024-01-30T13:09:46;4.05;;;2.08;;
16600;SDS011;34891;48.164;11.572;2024-01-30T13:15:05;3.22;;;1.88;;
16600;SDS011;34891;48.164;11.572;2024-01-30T13:20:14;4.72;;;2.20;;
16600;SDS011;34891;48.164;11.572;2024-01-30T13:25:24;4.75;;;2.10;;
16600;SDS011;34891;48.164;11.572;2024-01-30T13:30:31;5.35;;;2.33;;
16600;SDS011;34891;48.164;11.572;2024-01-30T13:41:29;4.70;;;1.88;;
16600;SDS011;34891;48.164;11.572;2024-01-30T13:46:39;4.25;;;1.75;;
16600;SDS011;34891;48.164;11.572;2024-01-30T13:51:45;3.15;;;1.85;;
16600;SDS011;34891;48.164;11.572;2024-01-30T13:56:54;7.05;;;1.75;;
16600;SDS011;34891;48.164;11.572;2024-01-30T14:02:20;1.98;;;1.45;;
16600;SDS011;34891;48.164;11.572;2024-01-30T14:07:26;7.75;;;2.10;;
16600;SDS011;34891;48.164;11.572;2024-01-30T14:12:48;4.57;;;1.92;;
16600;SDS011;34891;48.164;11.572;2024-01-30T14:17:53;7.03;;;2.47;;
16600;SDS011;34891;48.164;11.572;2024-01-30T14:22:57;4.90;;;2.03;;
16600;SDS011;34891;48.164;11.572;2024-01-30T14:28:08;4.57;;;2.22;;
16600;SDS011;34891;48.164;11.572;2024-01-30T14:33:23;5.22;;;2.28;;
16600;SDS011;34891;48.164;11.572;2024-01-30T14:38:33;7.85;;;2.50;;
16600;SDS011;34891;48.164;11.572;2024-01-30T14:43:51;3.80;;;2.38;;
16600;SDS011;34891;48.164;11.572;2024-01-30T14:49:00;5.55;;;2.30;;
16600;SDS011;34891;48.164;11.572;2024-01-30T14:54:09;5.43;;;2.42;;
16600;SDS011;34891;48.164;11.572;2024-01-30T15:04:30;7.20;;;2.15;;
16600;SDS011;34891;48.164;11.572;2024-01-30T15:09:37;6.10;;;2.33;;
16600;SDS011;34891;48.164;11.572;2024-01-30T15:14:47;5.28;;;1.80;;
16600;SDS011;34891;48.164;11.572;2024-01-30T15:19:56;7.22;;;1.95;;
16600;SDS011;34891;48.164;11.572;2024-01-30T15:25:00;5.80;;;2.33;;
16600;SDS011;34891;48.164;11.572;2024-01-30T15:30:12;5.93;;;2.50;;
16600;SDS011;34891;48.164;11.572;2024-01-30T15:35:27;7.20;;;2.75;;
16600;SDS011;34891;48.164;11.572;2024-01-30T15:40:36;11.15;;;2.53;;
16600;SDS011;34891;48.164;11.572;2024-01-30T15:45:43;8.60;;;2.45;;
16600;SDS011;34891;48.164;11.572;2024-01-30T15:50:59;7.17;;;2.60;;
16600;SDS011;34891;48.164;11.572;2024-01-30T15:56:09;7.18;;;2.33;;
16600;SDS011;34891;48.164;11.572;2024-01-30T16:01:23;6.28;;;2.67;;
16600;SDS011;34891;48.164;11.572;2024-01-30T16:06:47;7.53;;;2.10;;
16600;SDS011;34891;48.164;11.572;2024-01-30T16:11:54;6.10;;;2.33;;
16600;SDS011;34891;48.164;11.572;2024-01-30T16:17:03;6.82;;;2.47;;
16600;SDS011;34891;48.164;11.572;2024-01-30T16:22:20;4.80;;;2.17;;
16600;SDS011;34891;48.164;11.572;2024-01-30T16:27:28;6.68;;;2.85;;
16600;SDS011;34891;48.164;11.572;2024-01-30T16:32:32;9.70;;;2.88;;
16600;SDS011;34891;48.164;11.572;2024-01-30T16:37:47;8.88;;;3.85;;
16600;SDS011;34891;48.164;11.572;2024-01-30T16:42:54;11.82;;;3.88;;
16600;SDS011;34891;48.164;11.572;2024-01-30T16:48:12;9.88;;;3.15;;
16600;SDS011;34891;48.164;11.572;2024-01-30T16:53:21;11.05;;;2.92;;
16600;SDS011;34891;48.164;11.572;2024-01-30T16:58:32;10.80;;;3.85;;
16600;SDS011;34891;48.164;11.572;2024-01-30T17:03:52;11.20;;;2.95;;
16600;SDS011;34891;48.164;11.572;2024-01-30T17:09:13;11.40;;;3.30;;
16600;SDS011;34891;48.164;11.572;2024-01-30T17:14:20;7.88;;;2.28;;
16600;SDS011;34891;48.164;11.572;2024-01-30T17:19:23;5.28;;;2.53;;
16600;SDS011;34891;48.164;11.572;2024-01-30T17:24:32;33.10;;;12.05;;
16600;SDS011;34891;48.164;11.572;2024-01-30T17:29:52;54.30;;;18.30;;
16600;SDS011;34891;48.164;11.572;2024-01-30T17:34:57;39.65;;;13.80;;
16600;SDS011;34891;48.164;11.572;2024-01-30T17:40:12;19.90;;;5.75;;
16600;SDS011;34891;48.164;11.572;2024-01-30T17:45:19;19.20;;;4.25;;
16600;SDS011;34891;48.164;11.572;2024-01-30T17:50:23;14.45;;;4.40;;
16600;SDS011;34891;48.164;11.572;2024-01-30T17:55:32;11.18;;;3.78;;
16600;SDS011;34891;48.164;11.572;2024-01-30T18:00:37;10.20;;;3.95;;
16600;SDS011;34891;48.164;11.572;2024-01-30T18:05:44;17.67;;;4.15;;
16600;SDS011;34891;48.164;11.572;2024-01-30T18:10:51;16.25;;;4.68;;
16600;SDS011;34891;48.164;11.572;2024-01-30T18:16:02;9.52;;;3.65;;
16600;SDS011;34891;48.164;11.572;2024-01-30T18:26:17;13.13;;;3.53;;
16600;SDS011;34891;48.164;11.572;2024-01-30T18:31:55;10.05;;;4.68;;
16600;SDS011;34891;48.164;11.572;2024-01-30T18:37:04;21.55;;;6.95;;
16600;SDS011;34891;48.164;11.572;2024-01-30T18:42:12;14.10;;;5.68;;
16600;SDS011;34891;48.164;11.572;2024-01-30T18:47:18;15.90;;;4.93;;
16600;SDS011;34891;48.164;11.572;2024-01-30T18:52:33;21.35;;;5.50;;
16600;SDS011;34891;48.164;11.572;2024-01-30T18:57:44;13.93;;;4.80;;
16600;SDS011;34891;48.164;11.572;2024-01-30T19:03:09;12.70;;;4.93;;
16600;SDS011;34891;48.164;11.572;2024-01-30T19:08:15;13.57;;;4.63;;
16600;SDS011;34891;48.164;11.572;2024-01-30T19:13:21;13.55;;;4.97;;
16600;SDS011;34891;48.164;11.572;2024-01-30T19:18:30;13.10;;;5.00;;
16600;SDS011;34891;48.164;11.572;2024-01-30T19:23:37;17.33;;;5.18;;
16600;SDS011;34891;48.164;11.572;2024-01-30T19:34:06;13.27;;;4.53;;
16600;SDS011;34891;48.164;11.572;2024-01-30T19:39:16;11.32;;;4.45;;
16600;SDS011;34891;48.164;11.572;2024-01-30T19:44:33;14.32;;;4.85;;
16600;SDS011;34891;48.164;11.572;2024-01-30T19:49:42;16.60;;;5.20;;
16600;SDS011;34891;48.164;11.572;2024-01-30T19:54:47;13.85;;;4.63;;
16600;SDS011;34891;48.164;11.572;2024-01-30T19:59:53;13.38;;;4.97;;
16600;SDS011;34891;48.164;11.572;2024-01-30T20:05:07;10.40;;;4.30;;
16600;SDS011;34891;48.164;11.572;2024-01-30T20:10:12;15.85;;;4.90;;
16600;SDS011;34891;48.164;11.572;2024-01-30T20:20:40;13.23;;;4.32;;
16600;SDS011;34891;48.164;11.572;2024-01-30T20:25:45;14.35;;;4.03;;
16600;SDS011;34891;48.164;11.572;2024-01-30T20:30:51;10.32;;;4.18;;
16600;SDS011;34891;48.164;11.572;2024-01-30T20:36:07;13.60;;;5.35;;
16600;SDS011;34891;48.164;11.572;2024-01-30T20:41:20;12.48;;;4.63;;
16600;SDS011;34891;48.164;11.572;2024-01-30T20:46:27;13.07;;;4.85;;
16600;SDS011;34891;48.164;11.572;2024-01-30T20:51:36;11.27;;;4.20;;
16600;SDS011;34891;48.164;11.572;2024-01-30T20:56:39;9.63;;;4.00;;
16600;SDS011;34891;48.164;11.572;2024-01-30T21:01:47;12.23;;;4.25;;
16600;SDS011;34891;48.164;11.572;2024-01-30T21:07:11;12.45;;;4.57;;
16600;SDS011;34891;48.164;11.572;2024-01-30T21:12:20;11.73;;;4.53;;
16600;SDS011;34891;48.164;11.572;2024-01-30T21:17:30;11.85;;;4.13;;
16600;SDS011;34891;48.164;11.572;2024-01-30T21:22:55;12.73;;;4.57;;
16600;SDS011;34891;48.164;11.572;2024-01-30T21:28:04;10.80;;;4.22;;
16600;SDS011;34891;48.164;11.572;2024-01-30T21:33:08;10.57;;;3.75;;
16600;SDS011;34891;48.164;11.572;2024-01-30T21:38:16;9.48;;;4.13;;
16600;SDS011;34891;48.164;11.572;2024-01-30T21:43:22;3.85;;;2.20;;
16600;SDS011;34891;48.164;11.572;2024-01-30T21:48:30;5.82;;;3.20;;
16600;SDS011;34891;48.164;11.572;2024-01-30T21:53:44;7.28;;;3.33;;
16600;SDS011;34891;48.164;11.572;2024-01-30T21:58:49;7.28;;;3.50;;
16600;SDS011;34891;48.164;11.572;2024-01-30T22:03:59;7.85;;;2.65;;
16600;SDS011;34891;48.164;11.572;2024-01-30T22:09:21;12.23;;;2.78;;
16600;SDS011;34891;48.164;11.572;2024-01-30T22:14:31;6.07;;;2.72;;
16600;SDS011;34891;48.164;11.572;2024-01-30T22:20:00;5.78;;;2.30;;
16600;SDS011;34891;48.164;11.572;2024-01-30T22:25:11;7.90;;;3.35;;
16600;SDS011;34891;48.164;11.572;2024-01-30T22:30:18;7.40;;;2.92;;
16600;SDS011;34891;48.164;11.572;2024-01-30T22:35:28;8.43;;;3.15;;
16600;SDS011;34891;48.164;11.572;2024-01-30T22:40:39;7.70;;;3.08;;
16600;SDS011;34891;48.164;11.572;2024-01-30T22:45:57;5.70;;;2.55;;
16600;SDS011;34891;48.164;11.572;2024-01-30T22:51:09;10.98;;;3.78;;
16600;SDS011;34891;48.164;11.572;2024-01-30T22:56:16;8.68;;;2.83;;
16600;SDS011;34891;48.164;11.572;2024-01-30T23:01:21;6.60;;;3.22;;
16600;SDS011;34891;48.164;11.572;2024-01-30T23:06:30;6.78;;;2.70;;
16600;SDS011;34891;48.164;11.572;2024-01-30T23:17:15;8.48;;;3.38;;
16600;SDS011;34891;48.164;11.572;2024-01-30T23:22:27;6.15;;;2.50;;
16600;SDS011;34891;48.164;11.572;2024-01-30T23:27:36;8.13;;;3.10;;
16600;SDS011;34891;48.164;11.572;2024-01-30T23:32:46;4.85;;;2.38;;
16600;SDS011;34891;48.164;11.572;2024-01-30T23:38:17;6.00;;;2.63;;
16600;SDS011;34891;48.164;11.572;2024-01-30T23:43:22;4.20;;;2.08;;
16600;SDS011;34891;48.164;11.572;2024-01-30T23:48:34;5.85;;;2.15;;
16600;SDS011;34891;48.164;11.572;2024-01-30T23:53:43;6.15;;;2.80;;
16600;SDS011;34891;48.164;11.572;2024-01-30T23:58:51;4.70;;;2.05;;
